Hudson, OH

3:32 PM EDT on July 07, 2015 (GMT -0400)
-Hudson- | | Change Station
CLOSE
Current Station
Personal Weather Station
Location: Hudson, OH
Elevation: 1045 ft
Nearby Weather Stations

Elev 1045 ft 41.26 °N, 81.42 °W | Updated 5 seconds ago

Overcast
Overcast
79.2 °F
Feels Like 83 °F
N
0.0
Wind Variable Wind from WSW
Gusts 3.0 mph

Today
High -- | Low -- °F
--% Chance of Precip.
Yesterday
High -- | Low -- °F
Precip. -- in
5:59 AM 9:01 PM
Waning Gibbous, 62% visible
Pressure 29.93 in
Visibility 7.0 miles
Clouds Scattered Clouds 3300 ft
Scattered Clouds 4000 ft
Mostly Cloudy 7500 ft
Heat Index 83 °F
Dew Point 73 °F
Humidity 81%
Rainfall 0.00 in
Snow Depth Not available.
UV 5 out of 12
Pollen 3.70 out of 12
Air Quality Not available.
Flu Activity Not available.
METAR KPOV 071916Z AUTO 23007KT 210V270 7SM SCT033 SCT040 BKN075 27/19 A2993 RMK AO2 T02700187

More Conditions Fewer Conditions

Pressure 29.93 in
Visibility 7.0 miles
Clouds Scattered Clouds 3300 ft
Scattered Clouds 4000 ft
Mostly Cloudy 7500 ft
Heat Index 83 °F
Dew Point 73 °F
Humidity 81%
Rainfall 0.00 in
Snow Depth Not available.
UV 5 out of 12
Pollen 3.70 out of 12
Air Quality Not available.
Flu Activity Not available.
METAR KPOV 071916Z AUTO 23007KT 210V270 7SM SCT033 SCT040 BKN075 27/19 A2993 RMK AO2 T02700187

More Conditions Fewer Conditions

10-Day Weather Forecast

×

Almanac

Astronomy

Jul. 07, 2015 Rise Set
Actual Time
Civil Twilight
Nautical Twilight
Astronomical Twilight
Moon
Length of Visible Light
Length of Day
Tomorrow will be .
, % of the Moon is Illuminated

Today's Extremes

State Highs State Lows

Community

WunderPhotos

Upload Photos

1,835,880 photos uploaded!

WunderBlogs® & News

Nearby

Air Quality

  Air Quality AQ Index Pollutant
Not available.

Snow Depth

Station Depth Elevation

Earthquake Activity

City Distance Mag. Time & Date
Minimum magnitude displayed is 2.5.

Coastal Water Temperatures

Place Temperature

Stations

Nearby Weather Stations

Station Location Temp. Windchill Dew Point Humidity Wind Precip. Elev Updated Type